createdAt,value
2023-01-12T00:01:37.649Z,1.13
2023-01-12T00:04:05.443Z,1.00
2023-01-12T00:06:33.168Z,1.42
2023-01-12T00:09:02.426Z,1.15
2023-01-12T00:11:30.109Z,1.08
2023-01-12T00:13:58.301Z,1.00
2023-01-12T00:16:35.726Z,1.00
2023-01-12T00:19:03.261Z,1.10
2023-01-12T00:21:43.151Z,2.15
2023-01-12T00:24:10.738Z,0.90
2023-01-12T00:26:38.329Z,1.20
2023-01-12T00:29:05.838Z,1.08
2023-01-12T00:31:33.611Z,1.00
2023-01-12T00:34:01.176Z,0.98
2023-01-12T00:36:28.751Z,1.10
2023-01-12T00:38:56.275Z,1.40
2023-01-12T00:41:42.438Z,1.23
2023-01-12T00:44:28.957Z,1.27
2023-01-12T00:46:56.563Z,1.10
2023-01-12T00:49:24.101Z,1.17
2023-01-12T00:51:51.688Z,1.45
2023-01-12T00:54:19.318Z,1.15
2023-01-12T00:56:47.051Z,1.20
2023-01-12T00:59:14.575Z,1.20
2023-01-12T01:01:42.210Z,1.45
2023-01-12T01:04:09.866Z,1.88
2023-01-12T01:06:38.804Z,1.50
2023-01-12T01:09:06.588Z,1.48
2023-01-12T01:11:34.709Z,1.90
2023-01-12T01:14:02.543Z,1.48
2023-01-12T01:16:30.170Z,1.65
2023-01-12T01:18:58.430Z,1.73
2023-01-12T01:21:26.390Z,1.95
2023-01-12T01:23:53.984Z,1.70
2023-01-12T01:26:23.383Z,1.95
2023-01-12T01:28:51.551Z,1.90
2023-01-12T01:31:23.412Z,2.10
2023-01-12T01:33:51.432Z,1.98
2023-01-12T01:36:19.400Z,1.88
2023-01-12T01:38:47.851Z,1.70
2023-01-12T01:41:18.482Z,1.95
2023-01-12T01:43:50.500Z,1.67
2023-01-12T01:46:22.474Z,1.48
2023-01-12T01:48:50.044Z,1.50
2023-01-12T01:51:17.595Z,1.75
2023-01-12T01:53:46.153Z,1.73
2023-01-12T01:56:15.327Z,1.60
2023-01-12T01:58:51.113Z,1.90
2023-01-12T02:01:18.692Z,1.40
2023-01-12T02:03:46.621Z,1.40
2023-01-12T02:06:14.751Z,1.30
2023-01-12T02:08:46.329Z,1.40
2023-01-12T02:11:33.047Z,1.20
2023-01-12T02:14:19.518Z,1.33
2023-01-12T02:16:53.266Z,1.42
2023-01-12T02:19:42.369Z,1.60
2023-01-12T02:22:09.879Z,1.00
2023-01-12T02:24:56.683Z,1.23
2023-01-12T02:27:24.205Z,1.35
2023-01-12T02:30:13.924Z,1.48
2023-01-12T02:32:48.510Z,2.05
2023-01-12T02:35:25.827Z,1.30
2023-01-12T02:38:13.459Z,1.05
2023-01-12T02:40:40.989Z,1.10
2023-01-12T02:43:08.482Z,1.23
2023-01-12T02:45:45.921Z,1.27
2023-01-12T02:48:18.622Z,1.90
2023-01-12T02:50:52.249Z,1.55
2023-01-12T02:53:25.045Z,1.38
2023-01-12T02:55:53.164Z,1.15
2023-01-12T02:58:22.423Z,1.30
2023-01-12T03:00:51.007Z,1.20
2023-01-12T03:03:19.288Z,1.52
2023-01-12T03:05:47.520Z,1.20
2023-01-12T03:08:27.658Z,1.13
2023-01-12T03:11:13.715Z,1.20
2023-01-12T03:14:01.424Z,1.10
2023-01-12T03:16:30.899Z,1.15
2023-01-12T03:19:19.344Z,1.63
2023-01-12T03:21:50.118Z,1.30
2023-01-12T03:24:22.406Z,1.20
2023-01-12T03:26:51.791Z,1.27
2023-01-12T03:29:34.992Z,1.30
2023-01-12T03:32:02.821Z,1.33
2023-01-12T03:34:31.262Z,1.75
2023-01-12T03:36:58.794Z,1.23
2023-01-12T03:39:30.172Z,1.08
2023-01-12T03:42:00.877Z,1.13
2023-01-12T03:44:51.730Z,1.35
2023-01-12T03:47:21.562Z,0.90
2023-01-12T03:49:53.748Z,1.40
2023-01-12T03:52:22.523Z,1.60
2023-01-12T03:54:50.722Z,1.23
2023-01-12T03:57:19.847Z,1.48
2023-01-12T03:59:47.431Z,1.02
2023-01-12T04:02:15.244Z,1.35
2023-01-12T04:04:42.842Z,1.40
2023-01-12T04:07:10.416Z,1.25
2023-01-12T04:09:37.927Z,1.23
2023-01-12T04:12:11.639Z,1.35
2023-01-12T04:14:40.026Z,1.23
2023-01-12T04:17:08.240Z,0.98
2023-01-12T04:19:35.818Z,1.30
2023-01-12T04:22:22.043Z,1.20
2023-01-12T04:24:49.770Z,1.23
2023-01-12T04:27:17.483Z,1.33
2023-01-12T04:29:45.631Z,1.00
2023-01-12T04:32:13.226Z,1.00
2023-01-12T04:34:40.877Z,1.35
2023-01-12T04:37:08.467Z,1.10
2023-01-12T04:39:36.073Z,0.90
2023-01-12T04:42:03.681Z,1.00
2023-01-12T04:44:32.340Z,0.80
2023-01-12T04:46:59.868Z,0.82
2023-01-12T04:49:27.396Z,1.08
2023-01-12T04:51:54.929Z,1.20
2023-01-12T04:54:22.497Z,1.38
2023-01-12T04:56:50.263Z,1.33
2023-01-12T04:59:17.791Z,1.65
2023-01-12T05:01:45.408Z,1.10
2023-01-12T05:04:14.792Z,1.15
2023-01-12T05:06:42.412Z,0.82
2023-01-12T05:09:28.618Z,0.80
2023-01-12T05:11:56.143Z,0.93
2023-01-12T05:14:23.717Z,1.00
2023-01-12T05:16:51.328Z,0.98
2023-01-12T05:19:18.925Z,1.30
2023-01-12T05:21:46.461Z,1.10
2023-01-12T05:24:13.943Z,1.08
2023-01-12T05:26:41.428Z,1.13
2023-01-12T05:29:09.055Z,0.90
2023-01-12T05:31:36.624Z,1.10
2023-01-12T05:34:04.132Z,0.93
2023-01-12T05:36:31.639Z,1.00
2023-01-12T05:38:59.703Z,0.90
2023-01-12T05:41:27.357Z,1.00
2023-01-12T05:43:54.998Z,1.08
2023-01-12T05:46:24.243Z,1.30
2023-01-12T05:48:52.574Z,0.90
2023-01-12T05:51:20.387Z,1.50
2023-01-12T05:53:48.775Z,0.93
2023-01-12T05:56:17.981Z,1.10
2023-01-12T05:58:52.525Z,1.10
2023-01-12T06:01:21.011Z,1.55
2023-01-12T06:03:50.171Z,1.15
2023-01-12T06:06:18.783Z,1.15
2023-01-12T06:08:47.044Z,0.90
2023-01-12T06:11:33.546Z,1.20
2023-01-12T06:14:01.340Z,1.10
2023-01-12T06:16:29.423Z,1.00
2023-01-12T06:18:57.352Z,1.00
2023-01-12T06:21:25.240Z,1.10
2023-01-12T06:23:52.824Z,1.05
2023-01-12T06:26:20.499Z,1.35
2023-01-12T06:28:48.057Z,1.00
2023-01-12T06:31:15.906Z,0.90
2023-01-12T06:33:43.559Z,0.95
2023-01-12T06:36:11.728Z,1.30
2023-01-12T06:38:39.670Z,1.05
2023-01-12T06:41:34.133Z,1.15
2023-01-12T06:44:01.686Z,1.23
2023-01-12T06:46:29.357Z,1.10
2023-01-12T06:48:57.515Z,0.90
2023-01-12T06:51:25.527Z,1.08
2023-01-12T06:53:53.170Z,0.90
2023-01-12T06:56:20.842Z,1.30
2023-01-12T06:58:48.477Z,1.25
2023-01-12T07:01:16.800Z,1.30
2023-01-12T07:03:44.548Z,1.23
2023-01-12T07:06:12.823Z,1.25
2023-01-12T07:08:40.841Z,0.93
2023-01-12T07:11:08.662Z,1.23
2023-01-12T07:13:36.254Z,1.20
2023-01-12T07:16:03.906Z,1.00
2023-01-12T07:18:31.846Z,0.88
2023-01-12T07:20:59.432Z,1.10
2023-01-12T07:23:27.005Z,1.05
2023-01-12T07:25:54.511Z,1.10
2023-01-12T07:28:22.078Z,1.33
2023-01-12T07:30:49.676Z,1.30
2023-01-12T07:33:18.779Z,0.82
2023-01-12T07:35:46.400Z,1.10
2023-01-12T07:38:14.028Z,1.13
2023-01-12T07:40:41.911Z,0.90
2023-01-12T07:43:11.552Z,1.08
2023-01-12T07:45:39.143Z,0.90
2023-01-12T07:48:06.742Z,1.20
2023-01-12T07:50:35.129Z,0.93
2023-01-12T07:53:02.863Z,1.10
2023-01-12T07:55:31.181Z,1.00
2023-01-12T07:57:59.828Z,1.15
2023-01-12T08:00:28.459Z,1.42
2023-01-12T08:02:58.962Z,1.33
2023-01-12T08:05:26.562Z,1.02
2023-01-12T08:07:54.220Z,1.30
2023-01-12T08:10:21.724Z,1.00
2023-01-12T08:12:51.115Z,1.35
2023-01-12T08:15:18.760Z,1.05
2023-01-12T08:17:48.731Z,1.10
2023-01-12T08:20:20.884Z,1.35
2023-01-12T08:22:51.455Z,1.20
2023-01-12T08:25:20.683Z,1.20
2023-01-12T08:27:50.590Z,1.10
2023-01-12T08:30:20.570Z,1.00
2023-01-12T08:32:48.278Z,1.10
2023-01-12T08:35:17.339Z,1.13
2023-01-12T08:37:44.867Z,0.80
2023-01-12T08:40:12.680Z,0.98
2023-01-12T08:42:40.277Z,0.93
2023-01-12T08:45:08.211Z,1.10
2023-01-12T08:47:37.543Z,1.10
2023-01-12T08:50:05.458Z,1.33
2023-01-12T08:52:33.208Z,1.20
2023-01-12T08:55:00.780Z,1.02
2023-01-12T08:57:28.464Z,1.08
2023-01-12T08:59:56.006Z,1.20
2023-01-12T09:02:25.210Z,1.05
2023-01-12T09:04:52.785Z,1.00
2023-01-12T09:07:20.786Z,0.90
2023-01-12T09:09:48.511Z,1.05
2023-01-12T09:12:16.521Z,1.00
2023-01-12T09:14:44.047Z,1.10
2023-01-12T09:17:11.602Z,1.00
2023-01-12T09:19:39.228Z,0.60
2023-01-12T09:22:06.735Z,1.00
2023-01-12T09:24:34.285Z,0.90
2023-01-12T09:27:01.802Z,0.85
2023-01-12T09:29:29.415Z,0.80
2023-01-12T09:31:57.059Z,1.38
2023-01-12T09:34:24.788Z,1.05
2023-01-12T09:36:53.085Z,0.85
2023-01-12T09:39:27.693Z,1.13
2023-01-12T09:42:14.823Z,1.02
2023-01-12T09:45:02.507Z,1.00
2023-01-12T09:47:39.899Z,0.80
2023-01-12T09:50:09.972Z,1.00
2023-01-12T09:52:49.500Z,1.13
2023-01-12T09:55:17.032Z,0.70
2023-01-12T09:57:56.236Z,0.77
2023-01-12T10:00:24.246Z,0.93
2023-01-12T10:03:02.371Z,1.13
2023-01-12T10:05:49.995Z,0.90
2023-01-12T10:08:37.855Z,0.93
2023-01-12T10:11:11.558Z,0.90
2023-01-12T10:13:46.914Z,0.93
2023-01-12T10:16:20.137Z,0.90
2023-01-12T10:18:49.587Z,0.90
2023-01-12T10:21:17.117Z,0.90
2023-01-12T10:23:45.348Z,0.93
2023-01-12T10:26:23.408Z,1.30
2023-01-12T10:28:55.150Z,1.15
2023-01-12T10:31:24.200Z,0.93
2023-01-12T10:34:06.803Z,0.77
2023-01-12T10:36:49.161Z,1.33
2023-01-12T10:39:28.636Z,1.20
2023-01-12T10:42:09.181Z,1.13
2023-01-12T10:44:36.733Z,0.80
2023-01-12T10:47:10.706Z,1.00
2023-01-12T10:49:38.287Z,1.30
2023-01-12T10:52:22.701Z,0.90
2023-01-12T10:54:50.322Z,0.90
2023-01-12T10:57:22.790Z,1.00
2023-01-12T10:59:55.285Z,0.68
2023-01-12T11:02:25.578Z,0.80
2023-01-12T11:04:54.230Z,1.08
2023-01-12T11:07:26.961Z,0.70
2023-01-12T11:09:55.140Z,1.10
2023-01-12T11:12:30.146Z,0.70
2023-01-12T11:14:59.045Z,0.80
2023-01-12T11:17:33.032Z,0.63
2023-01-12T11:20:01.749Z,0.50
2023-01-12T11:22:31.038Z,0.50
2023-01-12T11:25:01.789Z,0.80
2023-01-12T11:27:29.309Z,0.70
2023-01-12T11:30:03.049Z,0.50
2023-01-12T11:32:38.871Z,0.68
2023-01-12T11:35:09.713Z,0.52
2023-01-12T11:37:39.072Z,0.73
2023-01-12T11:40:19.397Z,0.90
2023-01-12T11:43:05.965Z,0.88
2023-01-12T11:45:54.373Z,0.82
2023-01-12T11:48:45.171Z,0.47
2023-01-12T11:51:13.964Z,0.70
2023-01-12T11:53:41.759Z,0.98
2023-01-12T11:56:18.121Z,0.50
2023-01-12T11:58:51.885Z,0.50
2023-01-12T12:01:39.708Z,0.50
2023-01-12T12:04:16.177Z,0.80
2023-01-12T12:06:53.655Z,0.85
2023-01-12T12:09:27.200Z,0.68
2023-01-12T12:12:02.847Z,0.60
2023-01-12T12:14:33.529Z,0.60
2023-01-12T12:17:08.586Z,0.60
2023-01-12T12:19:43.725Z,0.60
2023-01-12T12:22:27.640Z,0.60
2023-01-12T12:24:55.428Z,0.57
2023-01-12T12:27:24.186Z,0.50
2023-01-12T12:30:21.343Z,0.50
2023-01-12T12:32:59.340Z,0.60
2023-01-12T12:35:50.121Z,0.65
2023-01-12T12:38:26.971Z,0.70
2023-01-12T12:41:32.595Z,0.75
2023-01-12T12:44:26.431Z,0.50
2023-01-12T12:47:16.712Z,0.50
2023-01-12T12:49:44.374Z,0.63
2023-01-12T12:52:13.301Z,0.63
2023-01-12T12:54:41.151Z,0.50
2023-01-12T12:57:08.781Z,0.52
2023-01-12T12:59:40.546Z,0.70
2023-01-12T13:02:28.097Z,0.73
2023-01-12T13:04:57.475Z,0.60
2023-01-12T13:07:26.268Z,0.90
2023-01-12T13:10:03.123Z,0.55
2023-01-12T13:12:32.070Z,0.70
2023-01-12T13:15:15.749Z,0.80
2023-01-12T13:17:44.611Z,0.38
2023-01-12T13:20:24.469Z,0.80
2023-01-12T13:22:52.405Z,0.50
2023-01-12T13:25:20.316Z,0.68
2023-01-12T13:27:55.470Z,0.80
2023-01-12T13:30:28.824Z,0.70
2023-01-12T13:33:17.313Z,0.70
2023-01-12T13:35:45.677Z,0.73
2023-01-12T13:38:16.161Z,0.57
2023-01-12T13:40:55.586Z,0.90
2023-01-12T13:43:30.749Z,0.60
2023-01-12T13:46:00.633Z,0.82
2023-01-12T13:48:30.342Z,0.70
2023-01-12T13:51:03.774Z,0.70
2023-01-12T13:53:32.023Z,0.85
2023-01-12T13:56:04.093Z,0.70
2023-01-12T13:58:39.571Z,0.85
2023-01-12T14:01:11.325Z,0.93
2023-01-12T14:06:13.571Z,0.60
2023-01-12T14:09:04.193Z,0.60
2023-01-12T14:11:55.168Z,0.77
2023-01-12T14:14:41.365Z,0.57
2023-01-12T14:17:32.511Z,0.45
2023-01-12T14:20:00.144Z,0.65
2023-01-12T14:22:27.661Z,0.73
2023-01-12T14:25:07.894Z,0.40
2023-01-12T14:27:35.423Z,0.63
2023-01-12T14:30:03.027Z,0.60
2023-01-12T14:32:30.598Z,0.60
2023-01-12T14:34:58.174Z,0.57
2023-01-12T14:37:33.088Z,0.85
2023-01-12T14:40:01.039Z,0.63
2023-01-12T14:42:47.213Z,0.60
2023-01-12T14:45:40.671Z,0.60
2023-01-12T14:48:21.086Z,0.93
2023-01-12T14:51:14.675Z,0.65
2023-01-12T14:53:42.846Z,0.98
2023-01-12T14:56:10.538Z,0.40
2023-01-12T14:58:38.950Z,0.73
2023-01-12T15:01:08.000Z,0.90
2023-01-12T15:03:43.728Z,0.60
2023-01-12T15:06:15.248Z,0.80
2023-01-12T15:08:53.091Z,0.67
2023-01-12T15:11:29.783Z,0.75
2023-01-12T15:13:58.587Z,0.65
2023-01-12T15:16:45.214Z,0.85
2023-01-12T15:19:31.654Z,0.50
2023-01-12T15:22:18.609Z,0.65
2023-01-12T15:25:04.884Z,0.60
2023-01-12T15:27:32.478Z,0.60
2023-01-12T15:30:00.036Z,0.73
2023-01-12T15:32:45.468Z,0.77
2023-01-12T15:35:21.121Z,1.02
2023-01-12T15:37:54.699Z,0.52
2023-01-12T15:40:23.033Z,0.43
2023-01-12T15:42:53.060Z,0.77
2023-01-12T15:45:27.396Z,0.50
2023-01-12T15:47:55.714Z,0.70
2023-01-12T15:50:23.462Z,0.68
2023-01-12T15:52:51.138Z,0.80
2023-01-12T15:55:20.175Z,0.88
2023-01-12T15:57:47.775Z,1.00
2023-01-12T16:00:16.313Z,0.60
2023-01-12T16:02:50.472Z,0.60
2023-01-12T16:05:19.476Z,0.60
2023-01-12T16:07:48.671Z,0.80
2023-01-12T16:10:17.212Z,0.70
2023-01-12T16:12:45.687Z,0.82
2023-01-12T16:15:23.216Z,0.90
2023-01-12T16:17:51.668Z,0.80
2023-01-12T16:20:20.211Z,0.80
2023-01-12T16:22:48.191Z,0.55
2023-01-12T16:25:16.481Z,0.60
2023-01-12T16:27:44.181Z,0.80
2023-01-12T16:30:15.769Z,0.65
2023-01-12T16:32:46.181Z,0.57
2023-01-12T16:35:14.880Z,0.88
2023-01-12T16:37:42.794Z,0.70
2023-01-12T16:40:10.899Z,0.75
2023-01-12T16:42:38.477Z,0.60
2023-01-12T16:45:06.454Z,0.60
2023-01-12T16:47:34.078Z,0.88
2023-01-12T16:50:01.599Z,0.80
2023-01-12T16:52:29.167Z,0.80
2023-01-12T16:54:56.682Z,0.70
2023-01-12T16:57:24.233Z,0.65
2023-01-12T16:59:51.942Z,0.90
2023-01-12T17:02:19.767Z,0.80
2023-01-12T17:04:51.764Z,0.82
2023-01-12T17:07:19.387Z,1.48
2023-01-12T17:09:47.021Z,1.08
2023-01-12T17:12:14.820Z,0.70
2023-01-12T17:14:42.479Z,0.95
2023-01-12T17:17:10.717Z,1.35
2023-01-12T17:19:39.647Z,0.90
2023-01-12T17:22:08.180Z,0.85
2023-01-12T17:24:36.476Z,1.17
2023-01-12T17:27:04.134Z,0.80
2023-01-12T17:29:31.925Z,0.70
2023-01-12T17:32:04.490Z,0.63
2023-01-12T17:34:35.131Z,0.70
2023-01-12T17:37:04.047Z,1.27
2023-01-12T17:39:31.967Z,0.90
2023-01-12T17:42:18.226Z,0.73
2023-01-12T17:44:45.758Z,1.00
2023-01-12T17:47:13.536Z,0.90
2023-01-12T17:49:41.089Z,0.90
2023-01-12T17:52:08.676Z,0.73
2023-01-12T17:54:36.220Z,0.90
2023-01-12T17:57:04.011Z,0.77
2023-01-12T17:59:31.597Z,0.85
2023-01-12T18:01:59.327Z,0.90
2023-01-12T18:04:27.109Z,0.90
2023-01-12T18:06:54.743Z,0.80
2023-01-12T18:09:22.437Z,0.93
2023-01-12T18:11:50.036Z,0.95
2023-01-12T18:14:20.786Z,1.10
2023-01-12T18:16:48.474Z,0.90
2023-01-12T18:19:16.030Z,0.70
2023-01-12T18:21:43.812Z,0.98
2023-01-12T18:24:11.724Z,0.85
2023-01-12T18:26:40.040Z,1.05
2023-01-12T18:29:07.782Z,1.13
2023-01-12T18:31:42.343Z,0.90
2023-01-12T18:34:11.071Z,0.90
2023-01-12T18:36:39.729Z,0.90
2023-01-12T18:39:08.282Z,0.88
2023-01-12T18:41:55.196Z,0.90
2023-01-12T18:44:23.536Z,1.00
2023-01-12T18:47:10.120Z,0.77
2023-01-12T18:49:39.442Z,0.70
2023-01-12T18:52:26.462Z,0.90
2023-01-12T18:54:54.700Z,0.65
2023-01-12T18:57:23.966Z,0.80
2023-01-12T18:59:53.332Z,1.27
2023-01-12T19:02:21.709Z,1.00
2023-01-12T19:04:49.516Z,0.90
2023-01-12T19:07:29.268Z,1.00
2023-01-12T19:09:57.268Z,1.00
2023-01-12T19:12:24.997Z,1.00
2023-01-12T19:15:11.111Z,1.00
2023-01-12T19:17:41.804Z,1.08
2023-01-12T19:20:11.857Z,0.90
2023-01-12T19:22:58.111Z,1.10
2023-01-12T19:25:44.590Z,1.20
2023-01-12T19:28:32.763Z,1.50
2023-01-12T19:31:01.200Z,1.10
2023-01-12T19:33:29.169Z,1.15
2023-01-12T19:35:56.746Z,0.98
2023-01-12T19:38:24.507Z,1.08
2023-01-12T19:40:55.570Z,1.20
2023-01-12T19:43:26.093Z,1.07
2023-01-12T19:45:55.095Z,0.80
2023-01-12T19:48:23.961Z,0.85
2023-01-12T19:50:52.377Z,1.20
2023-01-12T19:53:21.852Z,0.85
2023-01-12T19:55:50.245Z,0.80
2023-01-12T19:58:17.825Z,0.98
2023-01-12T20:00:46.192Z,1.20
2023-01-12T20:03:18.263Z,0.90
2023-01-12T20:05:53.246Z,1.00
2023-01-12T20:08:21.993Z,0.75
2023-01-12T20:10:56.664Z,0.95
2023-01-12T20:13:24.602Z,1.05
2023-01-12T20:15:53.006Z,1.30
2023-01-12T20:18:20.564Z,0.82
2023-01-12T20:20:48.300Z,1.05
2023-01-12T20:23:16.175Z,1.17
2023-01-12T20:25:44.823Z,1.45
2023-01-12T20:28:13.836Z,1.05
2023-01-12T20:30:42.875Z,0.98
2023-01-12T20:33:11.036Z,0.85
2023-01-12T20:35:43.671Z,1.17
2023-01-12T20:38:15.507Z,1.00
2023-01-12T20:43:10.657Z,1.35
2023-01-12T20:45:39.752Z,1.27
2023-01-12T20:48:07.280Z,1.55
2023-01-12T20:50:34.867Z,1.58
2023-01-12T20:53:02.460Z,1.50
2023-01-12T20:55:29.978Z,1.40
2023-01-12T20:57:57.645Z,1.20
2023-01-12T21:00:26.153Z,1.23
2023-01-12T21:02:53.904Z,1.10
2023-01-12T21:05:21.427Z,1.10
2023-01-12T21:07:52.023Z,0.98
2023-01-12T21:10:21.789Z,1.40
2023-01-12T21:12:49.327Z,1.10
2023-01-12T21:15:18.042Z,0.82
2023-01-12T21:17:45.610Z,1.00
2023-01-12T21:20:14.527Z,1.15
2023-01-12T21:22:42.164Z,0.80
2023-01-12T21:25:10.628Z,0.93
2023-01-12T21:27:38.225Z,0.70
2023-01-12T21:30:06.255Z,0.77
2023-01-12T21:32:33.791Z,0.93
2023-01-12T21:35:01.315Z,0.90
2023-01-12T21:37:28.840Z,1.05
2023-01-12T21:39:56.750Z,1.17
2023-01-12T21:42:43.289Z,0.75
2023-01-12T21:45:10.901Z,0.77
2023-01-12T21:47:38.421Z,0.80
2023-01-12T21:50:06.018Z,0.93
2023-01-12T21:52:34.154Z,1.17
2023-01-12T21:55:01.696Z,1.08
2023-01-12T21:57:29.233Z,1.42
2023-01-12T21:59:57.327Z,1.10
2023-01-12T22:02:25.401Z,1.20
2023-01-12T22:04:52.944Z,1.20
2023-01-12T22:07:20.483Z,0.75
2023-01-12T22:09:48.229Z,1.15
2023-01-12T22:12:15.785Z,1.00
2023-01-12T22:14:43.304Z,1.30
2023-01-12T22:17:10.857Z,0.93
2023-01-12T22:19:39.532Z,1.00
2023-01-12T22:22:07.214Z,1.10
2023-01-12T22:24:34.745Z,1.10
2023-01-12T22:27:03.342Z,1.20
2023-01-12T22:29:31.214Z,1.30
2023-01-12T22:31:58.767Z,1.00
2023-01-12T22:34:26.356Z,1.05
2023-01-12T22:36:54.090Z,1.00
2023-01-12T22:39:21.735Z,1.10
2023-01-12T22:41:50.662Z,0.75
2023-01-12T22:44:19.158Z,1.10
2023-01-12T22:46:46.886Z,1.05
2023-01-12T22:49:14.611Z,0.88
2023-01-12T22:51:42.178Z,0.90
2023-01-12T22:54:10.327Z,0.85
2023-01-12T22:56:37.855Z,0.60
2023-01-12T22:59:05.461Z,0.57
2023-01-12T23:01:33.369Z,0.70
2023-01-12T23:04:00.982Z,0.60
2023-01-12T23:06:28.630Z,0.70
2023-01-12T23:08:56.189Z,0.70
2023-01-12T23:11:25.421Z,0.50
2023-01-12T23:13:54.770Z,0.60
2023-01-12T23:16:22.373Z,0.65
2023-01-12T23:18:50.297Z,0.50
2023-01-12T23:21:17.802Z,0.50
2023-01-12T23:23:56.224Z,0.52
2023-01-12T23:26:27.209Z,0.60
2023-01-12T23:28:56.070Z,0.57
2023-01-12T23:31:25.265Z,0.70
2023-01-12T23:33:53.414Z,0.60
2023-01-12T23:36:22.688Z,0.55
2023-01-12T23:39:00.270Z,0.95
2023-01-12T23:41:29.111Z,1.00
2023-01-12T23:43:59.128Z,0.50
2023-01-12T23:46:27.428Z,0.50
2023-01-12T23:48:56.265Z,0.50
2023-01-12T23:51:24.538Z,0.50
2023-01-12T23:53:53.003Z,0.52
2023-01-12T23:56:20.732Z,0.50
2023-01-12T23:58:48.808Z,0.40
